Sendmarsh, United Kingdom

10:34 PM GMT on January 16, 2017 (GMT +0000)
Old Woking | | Change Station

Elev 85 ft 51.31 °N, 0.55 °W | Updated 9 seconds ago

Partly Cloudy
Partly Cloudy
40.6 °F
Feels Like 41 °F
N
0.0
Wind Variable Wind from NW
Gusts 0.0 mph

Today
High -- | Low -- °F
--% Chance of Precip.
Yesterday
High -- | Low -- °F
Precip. -- in
Pressure 30.45 in
Visibility 6.2 miles
Clouds Few 2300 ft
Mostly Cloudy 2600 ft
Windchill 41 °F
Dew Point 40 °F
Humidity 99%
Rainfall 0.19 in
Snow Depth Not available.
7:59 AM 4:25 PM
Waning Gibbous, 78% visible
METAR EGVO 162150Z 11003KT 9999 FEW023 BKN026 03/03 Q1031 BLU NOSIG
Pressure 30.45 in
Visibility 6.2 miles
Clouds Few 2300 ft
Mostly Cloudy 2600 ft
Windchill 41 °F
Dew Point 40 °F
Humidity 99%
Rainfall 0.19 in
Snow Depth Not available.
7:59 AM 4:25 PM
Waning Gibbous, 78% visible
METAR EGVO 162150Z 11003KT 9999 FEW023 BKN026 03/03 Q1031 BLU NOSIG

Get Your Daily Forecast Email!

Thanks for signing up!

Be on the lookout for a verification email in your inbox.

You'll start receiving the daily forecast at 8 AM.

×

10-Day Weather Forecast

×

Almanac

Astronomy

Jan. 16, 2017 Rise Set
Actual Time
Civil Twilight
Nautical Twilight
Astronomical Twilight
Moon
Length of Visible Light
Length of Day
Tomorrow will be .
, % of the Moon is Illuminated

Today's Extremes

Country Highs Country Lows

Community

WunderPhotos

Upload Photos

1,962,540 photos uploaded!

WunderBlog® & News

Nearby

Air Quality

  Air Quality AQ Index Pollutant
Not available.

Snow Depth

Station Depth Elevation

Earthquake Activity

City Distance Mag. Time & Date
Minimum magnitude displayed is 2.5.

Coastal Water Temperatures

Place Temperature

Stations

Nearby Weather Stations

Station Location Temp. Windchill Dew Point Humidity Wind Precip. Elev Updated Type